VAT302 OMDB-VHHH
Flight info
| Callsign | VAT302 |
|---|---|
| Flight time | N/A |
| Altitude | 39000 |
| Route | IVURO M677 LALDO B505 NADSO B524 ALPOR M504 TELEM A791 CEA/N0487F410 B465 CTG A599 LINSO/K0904S1250 A599 POU R473 SIERA |
| Aircraft | A359/H-SDE2E3GHIJ3J4J5LM1ORWXY/LB1D1 |
Departure
| Time | 2026-05-04 17:44 |
|---|---|
| Airport | Dubai International Airport (OMDB) |
Arrival
| Time | N/A |
|---|---|
| Airport | Hong Kong International Airport (VHHH) |
| Time | Latitude | Longitude | Altitude | Speed | Heading |
|---|---|---|---|---|---|
| 2026-05-04 17:12 | 25.24474 | 55.37138 | 28 ft | 0 kts | 211° |
| 2026-05-04 17:35 | 25.24523 | 55.37171 | 29 ft | 1 kts | 211° |
| 2026-05-04 17:35 | 25.24558 | 55.37181 | 25 ft | 3 kts | 154° |
| 2026-05-04 17:35 | 25.24573 | 55.37169 | 26 ft | 3 kts | 123° |
| 2026-05-04 17:36 | 25.24583 | 55.37151 | 27 ft | 3 kts | 122° |
| 2026-05-04 17:36 | 25.24592 | 55.37134 | 26 ft | 0 kts | 122° |
| 2026-05-04 17:38 | 25.24582 | 55.37153 | 28 ft | 7 kts | 122° |
| 2026-05-04 17:38 | 25.24556 | 55.37196 | 28 ft | 8 kts | 121° |
| 2026-05-04 17:39 | 25.24485 | 55.37326 | 28 ft | 12 kts | 121° |
| 2026-05-04 17:39 | 25.24438 | 55.37408 | 28 ft | 14 kts | 122° |
| 2026-05-04 17:39 | 25.24385 | 55.37502 | 28 ft | 15 kts | 122° |
| 2026-05-04 17:40 | 25.24328 | 55.37603 | 28 ft | 16 kts | 122° |
| 2026-05-04 17:40 | 25.24268 | 55.37709 | 28 ft | 13 kts | 122° |
| 2026-05-04 17:40 | 25.24285 | 55.37790 | 28 ft | 12 kts | 38° |
| 2026-05-04 17:40 | 25.24341 | 55.37830 | 28 ft | 9 kts | 33° |
| 2026-05-04 17:41 | 25.24400 | 55.37873 | 28 ft | 11 kts | 33° |
| 2026-05-04 17:41 | 25.24471 | 55.37927 | 28 ft | 13 kts | 35° |
| 2026-05-04 17:41 | 25.24549 | 55.37987 | 28 ft | 14 kts | 35° |
| 2026-05-04 17:41 | 25.24609 | 55.38032 | 28 ft | 10 kts | 32° |
| 2026-05-04 17:42 | 25.24672 | 55.38075 | 28 ft | 11 kts | 31° |
| 2026-05-04 17:42 | 25.24732 | 55.38114 | 28 ft | 8 kts | 24° |
| 2026-05-04 17:42 | 25.24771 | 55.38092 | 28 ft | 7 kts | 297° |
| 2026-05-04 17:42 | 25.24782 | 55.38072 | 28 ft | 0 kts | 300° |
| 2026-05-04 17:43 | 25.24796 | 55.38046 | 28 ft | 18 kts | 301° |
| 2026-05-04 17:43 | 25.24983 | 55.37708 | 28 ft | 84 kts | 301° |
| 2026-05-04 17:43 | 25.25393 | 55.36968 | 28 ft | 140 kts | 301° |
| 2026-05-04 17:43 | 25.25986 | 55.35908 | 113 ft | 179 kts | 303° |
| 2026-05-04 17:44 | 25.26649 | 55.34792 | 833 ft | 165 kts | 306° |
| 2026-05-04 17:44 | 25.27302 | 55.33795 | 1554 ft | 154 kts | 311° |
| 2026-05-04 17:44 | 25.27918 | 55.32814 | 1844 ft | 164 kts | 305° |
| 2026-05-04 17:44 | 25.28529 | 55.31682 | 2097 ft | 177 kts | 304° |
| 2026-05-04 17:45 | 25.29198 | 55.30510 | 2461 ft | 182 kts | 311° |
| 2026-05-04 17:45 | 25.30221 | 55.29678 | 2840 ft | 189 kts | 345° |
| 2026-05-04 17:45 | 25.31559 | 55.29539 | 3193 ft | 198 kts | 4° |
| 2026-05-04 17:45 | 25.32931 | 55.29605 | 3624 ft | 201 kts | 6° |
| 2026-05-04 17:46 | 25.34351 | 55.29684 | 3999 ft | 210 kts | 6° |
| 2026-05-04 17:46 | 25.35860 | 55.29755 | 4273 ft | 223 kts | 5° |
| 2026-05-04 17:46 | 25.37426 | 55.30080 | 4593 ft | 237 kts | 24° |
| 2026-05-04 17:46 | 25.38802 | 55.31159 | 4911 ft | 253 kts | 53° |
| 2026-05-04 17:47 | 25.39442 | 55.32976 | 5277 ft | 267 kts | 87° |
| 2026-05-04 17:47 | 25.39360 | 55.35079 | 5696 ft | 278 kts | 96° |
| 2026-05-04 17:47 | 25.39147 | 55.37231 | 6240 ft | 282 kts | 96° |
| 2026-05-04 17:47 | 25.38936 | 55.39401 | 6778 ft | 284 kts | 96° |
| 2026-05-04 17:48 | 25.38758 | 55.41586 | 7353 ft | 286 kts | 91° |
| 2026-05-04 17:48 | 25.38633 | 55.43766 | 7957 ft | 288 kts | 91° |
| 2026-05-04 17:48 | 25.38495 | 55.45985 | 8577 ft | 291 kts | 91° |
| 2026-05-04 17:48 | 25.38338 | 55.48225 | 9207 ft | 293 kts | 92° |
| 2026-05-04 17:49 | 25.38168 | 55.50487 | 9823 ft | 296 kts | 92° |
| 2026-05-04 17:49 | 25.37989 | 55.52808 | 10183 ft | 309 kts | 93° |
| 2026-05-04 17:49 | 25.37797 | 55.55242 | 10442 ft | 324 kts | 93° |
| 2026-05-04 17:49 | 25.37595 | 55.57758 | 10699 ft | 338 kts | 93° |
| 2026-05-04 17:50 | 25.37380 | 55.60399 | 10953 ft | 351 kts | 93° |
| 2026-05-04 17:50 | 25.37156 | 55.63139 | 11207 ft | 363 kts | 94° |
| 2026-05-04 17:50 | 25.36923 | 55.65978 | 11447 ft | 375 kts | 94° |
| 2026-05-04 17:50 | 25.36684 | 55.68883 | 11753 ft | 382 kts | 94° |
| 2026-05-04 17:51 | 25.36442 | 55.71811 | 12149 ft | 387 kts | 94° |
| 2026-05-04 17:51 | 25.36195 | 55.74793 | 12570 ft | 391 kts | 94° |
| 2026-05-04 17:51 | 25.35946 | 55.77801 | 12986 ft | 395 kts | 94° |
| 2026-05-04 17:51 | 25.35696 | 55.80809 | 13414 ft | 398 kts | 94° |
| 2026-05-04 17:52 | 25.35441 | 55.83867 | 13841 ft | 400 kts | 94° |
| 2026-05-04 17:52 | 25.35183 | 55.86955 | 14218 ft | 404 kts | 94° |
| 2026-05-04 17:52 | 25.34924 | 55.90062 | 14588 ft | 407 kts | 94° |
| 2026-05-04 17:52 | 25.34660 | 55.93202 | 14995 ft | 410 kts | 94° |
| 2026-05-04 17:53 | 25.34395 | 55.96354 | 15383 ft | 413 kts | 94° |
| 2026-05-04 17:53 | 25.34131 | 55.99492 | 15780 ft | 416 kts | 94° |
| 2026-05-04 17:53 | 25.33859 | 56.02707 | 16182 ft | 420 kts | 94° |
| 2026-05-04 17:53 | 25.33586 | 56.05933 | 16582 ft | 423 kts | 94° |
| 2026-05-04 17:54 | 25.33310 | 56.09183 | 16993 ft | 426 kts | 94° |
| 2026-05-04 17:54 | 25.33033 | 56.12434 | 17386 ft | 429 kts | 94° |
| 2026-05-04 17:54 | 25.32751 | 56.15749 | 17800 ft | 433 kts | 94° |
| 2026-05-04 17:54 | 25.32472 | 56.19091 | 18189 ft | 436 kts | 94° |
| 2026-05-04 17:55 | 25.32197 | 56.22411 | 18566 ft | 439 kts | 94° |
| 2026-05-04 17:55 | 25.31918 | 56.25783 | 18939 ft | 441 kts | 94° |
| 2026-05-04 17:55 | 25.31637 | 56.29179 | 19300 ft | 444 kts | 94° |
| 2026-05-04 17:55 | 25.31352 | 56.32597 | 19669 ft | 447 kts | 94° |
| 2026-05-04 17:56 | 25.31064 | 56.36039 | 20019 ft | 451 kts | 94° |
| 2026-05-04 17:56 | 25.30783 | 56.39515 | 20412 ft | 454 kts | 94° |
| 2026-05-04 17:56 | 25.30595 | 56.42959 | 20812 ft | 456 kts | 92° |
| 2026-05-04 17:56 | 25.30479 | 56.46477 | 21195 ft | 459 kts | 91° |
| 2026-05-04 17:57 | 25.30394 | 56.50024 | 21600 ft | 462 kts | 91° |
| 2026-05-04 17:57 | 25.30316 | 56.53593 | 21983 ft | 465 kts | 91° |
| 2026-05-04 17:57 | 25.30160 | 56.57131 | 22386 ft | 467 kts | 96° |
| 2026-05-04 17:57 | 25.29594 | 56.60688 | 22765 ft | 470 kts | 105° |
| 2026-05-04 17:58 | 25.28593 | 56.64145 | 23147 ft | 473 kts | 110° |
| 2026-05-04 17:58 | 25.27432 | 56.67521 | 23501 ft | 475 kts | 112° |
| 2026-05-04 17:58 | 25.26166 | 56.70909 | 23807 ft | 479 kts | 114° |
| 2026-05-04 17:58 | 25.24840 | 56.74336 | 24115 ft | 482 kts | 114° |
| 2026-05-04 17:59 | 25.23503 | 56.77759 | 24446 ft | 485 kts | 114° |
| 2026-05-04 17:59 | 25.22185 | 56.81147 | 24760 ft | 488 kts | 114° |
| 2026-05-04 17:59 | 25.19506 | 56.88111 | 25383 ft | 495 kts | 114° |
| 2026-05-04 18:00 | 25.18163 | 56.91630 | 25687 ft | 499 kts | 114° |
| 2026-05-04 18:00 | 25.16813 | 56.95175 | 26016 ft | 502 kts | 114° |
| 2026-05-04 18:00 | 25.15457 | 56.98736 | 26338 ft | 505 kts | 114° |
| 2026-05-04 18:00 | 25.14085 | 57.02336 | 26684 ft | 507 kts | 114° |
| 2026-05-04 18:01 | 25.12725 | 57.05904 | 27013 ft | 510 kts | 114° |
| 2026-05-04 18:01 | 25.11343 | 57.09523 | 27319 ft | 513 kts | 114° |
| 2026-05-04 18:01 | 25.09942 | 57.13186 | 27632 ft | 517 kts | 114° |
| 2026-05-04 18:02 | 25.07139 | 57.20505 | 28233 ft | 524 kts | 114° |
| 2026-05-04 18:02 | 25.05712 | 57.24226 | 28535 ft | 527 kts | 114° |
| 2026-05-04 18:02 | 25.04278 | 57.27962 | 28814 ft | 530 kts | 114° |
| 2026-05-04 18:02 | 25.02837 | 57.31714 | 29095 ft | 533 kts | 114° |
| 2026-05-04 18:03 | 25.01877 | 57.34211 | 29289 ft | 534 kts | 114° |
| 2026-05-04 18:03 | 25.00419 | 57.38002 | 29538 ft | 537 kts | 114° |
| 2026-05-04 18:03 | 24.98476 | 57.43046 | 29855 ft | 540 kts | 114° |
| 2026-05-04 18:03 | 24.97000 | 57.46875 | 30100 ft | 542 kts | 114° |
| 2026-05-04 18:04 | 24.96020 | 57.49416 | 30245 ft | 543 kts | 114° |
| 2026-05-04 18:04 | 24.94534 | 57.53267 | 30461 ft | 545 kts | 114° |
| 2026-05-04 18:04 | 24.91568 | 57.60939 | 30875 ft | 547 kts | 114° |
| 2026-05-04 18:05 | 24.90064 | 57.64825 | 31087 ft | 549 kts | 114° |
| 2026-05-04 18:05 | 24.88560 | 57.68705 | 31324 ft | 549 kts | 114° |
| 2026-05-04 18:05 | 24.87060 | 57.72573 | 31608 ft | 549 kts | 114° |
| 2026-05-04 18:05 | 24.85581 | 57.76383 | 31917 ft | 547 kts | 114° |
| 2026-05-04 18:06 | 24.82963 | 57.84240 | 32481 ft | 546 kts | 104° |
| 2026-05-04 18:06 | 24.82030 | 57.88315 | 32838 ft | 544 kts | 103° |
| 2026-05-04 18:06 | 24.81181 | 57.92317 | 33125 ft | 543 kts | 102° |
| 2026-05-04 18:07 | 24.80354 | 57.96387 | 33354 ft | 544 kts | 102° |
| 2026-05-04 18:07 | 24.79542 | 58.00457 | 33590 ft | 544 kts | 102° |
| 2026-05-04 18:07 | 24.78729 | 58.04532 | 33841 ft | 543 kts | 102° |
| 2026-05-04 18:07 | 24.77923 | 58.08545 | 34049 ft | 542 kts | 102° |
| 2026-05-04 18:08 | 24.77100 | 58.12618 | 34254 ft | 542 kts | 102° |
| 2026-05-04 18:08 | 24.76274 | 58.16675 | 34457 ft | 542 kts | 102° |
| 2026-05-04 18:08 | 24.75444 | 58.20733 | 34657 ft | 542 kts | 102° |
| 2026-05-04 18:08 | 24.74623 | 58.24732 | 34815 ft | 543 kts | 102° |
| 2026-05-04 18:09 | 24.72954 | 58.32846 | 35209 ft | 542 kts | 102° |